Time;durP1;ratioP1;P1;durP2;ratioP2;P2;SDS_P1;SDS_P2;PMS_P1;PMS_P2;Temp;Humidity;BMP_temperature;BMP_pressure;BME280_temperature;BME280_humidity;BME280_pressure;Samples;Min_cycle;Max_cycle;Signal;HPM_P1;HPM_P2
2023/01/22 00:01:07;;;;;;;;;;;;;;;;;;5004749;28;19985;-87
2023/01/22 00:03:34;;;;;;;;;;;;;;;;;;4997492;28;19961;-85
2023/01/22 00:06:00;;;;;;;;;;;;;;;;;;4997255;28;20589;-86
2023/01/22 00:08:25;;;;;;;;;;;;;;;;;;5008798;28;19914;-85
2023/01/22 00:10:51;;;;;;;;;;;;;;;;;;4995251;28;19914;-87
2023/01/22 00:13:17;;;;;;;;;;;;;;;;;;4997935;28;20296;-87
2023/01/22 00:15:43;;;;;;;;;;;;;;;;;;5006761;28;19913;-87
2023/01/22 00:18:09;;;;;;;;;;;;;;;;;;4999065;28;19933;-87
2023/01/22 00:20:35;;;;;;;;;;;;;;;;;;5001036;28;19987;-86
2023/01/22 00:23:01;;;;;;;;;;;;;;;;;;4999952;28;19918;-86
2023/01/22 00:25:27;;;;;;;;;;;;;;;;;;4993984;28;19926;-86
2023/01/22 00:27:53;;;;;;;;;;;;;;;;;;4980710;28;20296;-86
2023/01/22 00:30:19;;;;;;;;;;;;;;;;;;5005118;28;19921;-86
2023/01/22 00:32:44;;;;;;;;;;;;;;;;;;5008446;28;20380;-87
2023/01/22 00:35:13;;;;;;;;;;;;;;;;;;4997388;28;19913;-86
2023/01/22 00:37:39;;;;;;;;;;;;;;;;;;5003769;28;19913;-86
2023/01/22 00:40:05;;;;;;;;;;;;;;;;;;4987089;28;20331;-87
2023/01/22 00:42:31;;;;;;;;;;;;;;;;;;5001521;28;19913;-87
2023/01/22 00:44:58;;;;;;;;;;;;;;;;;;5001511;28;19936;-86
2023/01/22 00:47:24;;;;;;;;;;;;;;;;;;4998549;28;19914;-87
2023/01/22 00:49:52;;;;;;;;;;;;;;;;;;5001524;28;19968;-86
2023/01/22 00:52:18;;;;;;;;;;;;;;;;;;4999321;28;20009;-87
2023/01/22 00:54:44;;;;;;;;;;;;;;;;;;4991827;28;19936;-86
2023/01/22 00:57:10;;;;;;;;;;;;;;;;;;5001598;28;19921;-86
2023/01/22 00:59:36;;;;;;;;;;;;;;;;;;5001910;28;19917;-87
2023/01/22 01:02:02;;;;;;;;;;;;;;;;;;5000256;28;19929;-86
2023/01/22 01:04:28;;;;;;;;;;;;;;;;;;5000234;28;19924;-86
2023/01/22 01:06:54;;;;;;;;;;;;;;;;;;5000456;28;20008;-87
2023/01/22 01:09:20;;;;;;;;;;;;;;;;;;4999680;28;20405;-87
2023/01/22 01:11:45;;;;;;;;;;;;;;;;;;5000297;28;19925;-87
2023/01/22 01:14:11;;;;;;;;;;;;;;;;;;5000466;28;19921;-87
2023/01/22 01:16:40;;;;;;;;;;;;;;;;;;4997789;28;19913;-85
2023/01/22 01:19:06;;;;;;;;;;;;;;;;;;4981768;28;19922;-87
2023/01/22 01:21:32;;;;;;;;;;;;;;;;;;5003911;28;19917;-84
2023/01/22 01:23:57;;;;;;;;;;;;;;;;;;4996877;28;20424;-85
2023/01/22 01:26:23;;;;;;;;;;;;;;;;;;4989236;28;20376;-85
2023/01/22 01:28:51;;;;;;;;;;;;;;;;;;5003857;28;20284;-86
2023/01/22 01:31:17;;;;;;;;;;;;;;;;;;4980847;28;19914;-84
2023/01/22 01:33:43;;;;;;;;;;;;;;;;;;4979946;28;19910;-85
2023/01/22 01:36:09;;;;;;;;;;;;;;;;;;4989497;28;19921;-86
2023/01/22 01:38:35;;;;;;;;;;;;;;;;;;4997787;28;20407;-86
2023/01/22 01:41:00;;;;;;;;;;;;;;;;;;4980238;28;19917;-87
2023/01/22 01:43:26;;;;;;;;;;;;;;;;;;4981280;28;19910;-85
2023/01/22 01:45:52;;;;;;;;;;;;;;;;;;4993551;28;20435;-85
2023/01/22 01:48:18;;;;;;;;;;;;;;;;;;5004188;28;19921;-85
2023/01/22 01:50:44;;;;;;;;;;;;;;;;;;4999674;28;19921;-85
2023/01/22 01:53:10;;;;;;;;;;;;;;;;;;5012133;28;19922;-85
2023/01/22 01:55:38;;;;;;;;;;;;;;;;;;4999046;28;19921;-85
2023/01/22 01:58:04;;;;;;;;;;;;;;;;;;4997072;28;19914;-85
2023/01/22 02:00:30;;;;;;;;;;;;;;;;;;4993666;28;19950;-85
2023/01/22 02:02:56;;;;;;;;;;;;;;;;;;5001800;28;19985;-85
2023/01/22 02:05:22;;;;;;;;;;;;;;;;;;5000048;28;19963;-86
2023/01/22 02:07:48;;;;;;;;;;;;;;;;;;4999543;28;20012;-88
2023/01/22 02:10:14;;;;;;;;;;;;;;;;;;4996776;28;19914;-85
2023/01/22 02:12:40;;;;;;;;;;;;;;;;;;4991633;28;20443;-85
2023/01/22 02:15:06;;;;;;;;;;;;;;;;;;4999137;28;19920;-85
2023/01/22 02:17:32;;;;;;;;;;;;;;;;;;4992034;28;19942;-85
2023/01/22 02:19:57;;;;;;;;;;;;;;;;;;4997867;28;19918;-87
2023/01/22 02:22:23;;;;;;;;;;;;;;;;;;4982573;28;19948;-88
2023/01/22 02:24:49;;;;;;;;;;;;;;;;;;4997829;28;19910;-84
2023/01/22 02:27:18;;;;;;;;;;;;;;;;;;4996212;28;19914;-85
2023/01/22 02:29:43;;;;;;;;;;;;;;;;;;4994878;28;20296;-85
2023/01/22 02:32:09;;;;;;;;;;;;;;;;;;5003594;28;19989;-85
2023/01/22 02:34:38;;;;;;;;;;;;;;;;;;5004806;28;20365;-85
2023/01/22 02:37:04;;;;;;;;;;;;;;;;;;4997086;28;19952;-87
2023/01/22 02:39:30;;;;;;;;;;;;;;;;;;4983335;28;19918;-86
2023/01/22 02:41:56;;;;;;;;;;;;;;;;;;4983155;28;20411;-86
2023/01/22 02:44:22;;;;;;;;;;;;;;;;;;4996338;28;19914;-86
2023/01/22 02:46:48;;;;;;;;;;;;;;;;;;4994742;28;19983;-85
2023/01/22 02:49:14;;;;;;;;;;;;;;;;;;4996461;28;19920;-85
2023/01/22 02:51:40;;;;;;;;;;;;;;;;;;5001053;28;19981;-85
2023/01/22 02:54:05;;;;;;;;;;;;;;;;;;4997761;28;19914;-85
2023/01/22 02:56:31;;;;;;;;;;;;;;;;;;4985793;28;19968;-85
2023/01/22 02:58:57;;;;;;;;;;;;;;;;;;4983947;28;19945;-85
2023/01/22 03:01:26;;;;;;;;;;;;;;;;;;4988412;28;20321;-87
2023/01/22 03:03:51;;;;;;;;;;;;;;;;;;5001812;28;19914;-83
2023/01/22 03:06:28;;;;;;;;;;;;;;;;;;4979834;28;19925;-83
2023/01/22 03:08:54;;;;;;;;;;;;;;;;;;5013074;28;19949;-86
2023/01/22 03:11:20;;;;;;;;;;;;;;;;;;4999058;28;19977;-85
2023/01/22 03:22:00;;;;;;;;;;;;;;;;;;4954927;29;20401;-84
2023/01/22 03:24:26;;;;;;;;;;;;;;;;;;4972255;28;19949;-85
2023/01/22 03:26:52;;;;;;;;;;;;;;;;;;4964634;28;19964;-86
2023/01/22 03:29:18;;;;;;;;;;;;;;;;;;4975050;28;19911;-85
2023/01/22 03:31:47;;;;;;;;;;;;;;;;;;4962325;29;19910;-85
2023/01/22 03:34:13;;;;;;;;;;;;;;;;;;4973834;28;19919;-86
2023/01/22 03:36:38;;;;;;;;;;;;;;;;;;4978445;28;19911;-86
2023/01/22 03:39:04;;;;;;;;;;;;;;;;;;4976139;28;20361;-85
2023/01/22 03:41:33;;;;;;;;;;;;;;;;;;4976862;28;19926;-85
2023/01/22 03:44:00;;;;;;;;;;;;;;;;;;4973453;28;19919;-85
2023/01/22 03:46:26;;;;;;;;;;;;;;;;;;4965884;28;20017;-86
2023/01/22 03:48:52;;;;;;;;;;;;;;;;;;4977550;28;19977;-85
2023/01/22 03:51:18;;;;;;;;;;;;;;;;;;4969853;28;19978;-85
2023/01/22 03:53:43;;;;;;;;;;;;;;;;;;4976369;28;19938;-86
2023/01/22 03:56:09;;;;;;;;;;;;;;;;;;4977081;28;19917;-85
2023/01/22 03:58:38;;;;;;;;;;;;;;;;;;4965809;28;19918;-87
2023/01/22 04:01:04;;;;;;;;;;;;;;;;;;4976894;28;20352;-87
2023/01/22 04:03:30;;;;;;;;;;;;;;;;;;4977756;28;19969;-87
2023/01/22 04:05:59;;;;;;;;;;;;;;;;;;4979436;28;20369;-87
2023/01/22 04:08:24;;;;;;;;;;;;;;;;;;4978286;28;19950;-87
2023/01/22 04:10:50;;;;;;;;;;;;;;;;;;4978170;28;19914;-87
2023/01/22 04:13:16;;;;;;;;;;;;;;;;;;4980241;28;19911;-86
2023/01/22 04:15:42;;;;;;;;;;;;;;;;;;4979366;28;19914;-86
2023/01/22 04:18:08;;;;;;;;;;;;;;;;;;4986710;28;19956;-87
2023/01/22 04:20:34;;;;;;;;;;;;;;;;;;5001237;28;19918;-88
2023/01/22 04:23:00;;;;;;;;;;;;;;;;;;4982358;28;19914;-88
2023/01/22 04:25:26;;;;;;;;;;;;;;;;;;4980665;28;19914;-86
2023/01/22 04:27:52;;;;;;;;;;;;;;;;;;4997787;28;19911;-87
2023/01/22 04:30:18;;;;;;;;;;;;;;;;;;4998221;28;19965;-85
2023/01/22 04:32:44;;;;;;;;;;;;;;;;;;4997868;28;19934;-84
2023/01/22 04:35:09;;;;;;;;;;;;;;;;;;4991466;28;19970;-85
2023/01/22 04:37:35;;;;;;;;;;;;;;;;;;4982764;28;20024;-85
2023/01/22 04:40:01;;;;;;;;;;;;;;;;;;5000794;28;19962;-85
2023/01/22 04:42:27;;;;;;;;;;;;;;;;;;4982657;28;20356;-84
2023/01/22 04:44:53;;;;;;;;;;;;;;;;;;4997804;28;19910;-85
2023/01/22 04:47:19;;;;;;;;;;;;;;;;;;4978706;28;20720;-84
2023/01/22 04:49:45;;;;;;;;;;;;;;;;;;4978946;28;19915;-85
2023/01/22 04:52:13;;;;;;;;;;;;;;;;;;4981690;28;19921;-84
2023/01/22 04:54:39;;;;;;;;;;;;;;;;;;4997354;28;19911;-84
2023/01/22 04:57:05;;;;;;;;;;;;;;;;;;4998740;28;19920;-85
2023/01/22 04:59:31;;;;;;;;;;;;;;;;;;4982852;28;19918;-85
2023/01/22 05:01:57;;;;;;;;;;;;;;;;;;4981570;28;19914;-87
2023/01/22 05:04:23;;;;;;;;;;;;;;;;;;4964258;28;19921;-84
2023/01/22 05:06:49;;;;;;;;;;;;;;;;;;4997290;28;19914;-87
2023/01/22 05:09:15;;;;;;;;;;;;;;;;;;4995103;28;20000;-86
2023/01/22 05:11:40;;;;;;;;;;;;;;;;;;4995800;28;19918;-87
2023/01/22 05:14:06;;;;;;;;;;;;;;;;;;4998757;28;19910;-88
2023/01/22 05:16:32;;;;;;;;;;;;;;;;;;5001607;28;19974;-87
2023/01/22 05:18:58;;;;;;;;;;;;;;;;;;4985187;28;19923;-88
2023/01/22 05:21:24;;;;;;;;;;;;;;;;;;4997847;28;20365;-86
2023/01/22 05:23:50;;;;;;;;;;;;;;;;;;4999299;28;19925;-85
2023/01/22 05:26:16;;;;;;;;;;;;;;;;;;5000802;28;19914;-86
2023/01/22 05:28:42;;;;;;;;;;;;;;;;;;4984250;28;19910;-86
2023/01/22 05:31:09;;;;;;;;;;;;;;;;;;4983935;28;19918;-86
2023/01/22 05:33:35;;;;;;;;;;;;;;;;;;4979561;28;19915;-85
2023/01/22 05:36:01;;;;;;;;;;;;;;;;;;4979524;28;19942;-87
2023/01/22 05:38:27;;;;;;;;;;;;;;;;;;4978728;28;20387;-87
2023/01/22 05:40:55;;;;;;;;;;;;;;;;;;4980464;28;19941;-85
2023/01/22 05:43:21;;;;;;;;;;;;;;;;;;4977968;28;19937;-86
2023/01/22 05:45:47;;;;;;;;;;;;;;;;;;4978535;28;20111;-85
2023/01/22 05:48:13;;;;;;;;;;;;;;;;;;4994891;28;19918;-85
2023/01/22 05:50:39;;;;;;;;;;;;;;;;;;4994731;28;19911;-85
2023/01/22 05:53:05;;;;;;;;;;;;;;;;;;4978818;28;19910;-85
2023/01/22 05:55:31;;;;;;;;;;;;;;;;;;4979435;28;19945;-85
2023/01/22 05:57:57;;;;;;;;;;;;;;;;;;4977942;28;19964;-87
2023/01/22 06:00:22;;;;;;;;;;;;;;;;;;4994458;28;19929;-87
2023/01/22 06:02:48;;;;;;;;;;;;;;;;;;4992030;28;19918;-86
2023/01/22 06:05:14;;;;;;;;;;;;;;;;;;4961690;28;19910;-88
2023/01/22 06:07:40;;;;;;;;;;;;;;;;;;4985105;28;20008;-88
2023/01/22 06:10:06;;;;;;;;;;;;;;;;;;4981000;28;19949;-86
2023/01/22 06:12:35;;;;;;;;;;;;;;;;;;4994848;28;20372;-86
2023/01/22 06:15:00;;;;;;;;;;;;;;;;;;4995236;28;19914;-86
2023/01/22 06:17:26;;;;;;;;;;;;;;;;;;4977258;28;20031;-86
2023/01/22 06:19:52;;;;;;;;;;;;;;;;;;4977177;28;19969;-87
2023/01/22 06:22:18;;;;;;;;;;;;;;;;;;4989975;28;19917;-86
2023/01/22 06:24:44;;;;;;;;;;;;;;;;;;4990924;28;19910;-86
2023/01/22 06:27:10;;;;;;;;;;;;;;;;;;4975591;28;19920;-87
2023/01/22 06:29:36;;;;;;;;;;;;;;;;;;4972547;28;20645;-84
2023/01/22 06:32:02;;;;;;;;;;;;;;;;;;4978960;28;20389;-85
2023/01/22 06:34:28;;;;;;;;;;;;;;;;;;4974066;28;19922;-87
2023/01/22 06:36:54;;;;;;;;;;;;;;;;;;4966327;28;19922;-85
2023/01/22 06:39:20;;;;;;;;;;;;;;;;;;4987832;28;19925;-84
2023/01/22 06:41:48;;;;;;;;;;;;;;;;;;4967399;28;19921;-86
2023/01/22 06:44:14;;;;;;;;;;;;;;;;;;4966767;28;19914;-85
2023/01/22 06:46:42;;;;;;;;;;;;;;;;;;4974587;28;19918;-84
2023/01/22 06:49:08;;;;;;;;;;;;;;;;;;4978551;28;19922;-86
2023/01/22 06:51:34;;;;;;;;;;;;;;;;;;4994851;28;19957;-86
2023/01/22 06:53:59;;;;;;;;;;;;;;;;;;4967493;28;20116;-85
2023/01/22 06:56:25;;;;;;;;;;;;;;;;;;4984188;28;19937;-84
2023/01/22 06:58:51;;;;;;;;;;;;;;;;;;4975036;28;20339;-85
2023/01/22 07:01:17;;;;;;;;;;;;;;;;;;4996984;28;19960;-85
2023/01/22 07:03:44;;;;;;;;;;;;;;;;;;4980728;28;19990;-86
2023/01/22 07:06:10;;;;;;;;;;;;;;;;;;4977915;28;20417;-87
2023/01/22 07:08:36;;;;;;;;;;;;;;;;;;4989106;28;20005;-85
2023/01/22 07:11:02;;;;;;;;;;;;;;;;;;4992541;28;20022;-84
2023/01/22 07:13:28;;;;;;;;;;;;;;;;;;4964971;28;20284;-87
2023/01/22 07:15:54;;;;;;;;;;;;;;;;;;4975111;28;19918;-86
2023/01/22 07:18:22;;;;;;;;;;;;;;;;;;4975169;28;20408;-86
2023/01/22 07:20:48;;;;;;;;;;;;;;;;;;4972373;28;20258;-86
2023/01/22 07:23:14;;;;;;;;;;;;;;;;;;4989230;28;19930;-86
2023/01/22 07:25:47;;;;;;;;;;;;;;;;;;4957220;28;19917;-86
2023/01/22 07:28:13;;;;;;;;;;;;;;;;;;4963704;28;19993;-84
2023/01/22 07:30:39;;;;;;;;;;;;;;;;;;4974013;28;19914;-86
2023/01/22 07:33:05;;;;;;;;;;;;;;;;;;4974753;28;19937;-87
2023/01/22 07:35:31;;;;;;;;;;;;;;;;;;4976374;28;20750;-88
2023/01/22 07:37:57;;;;;;;;;;;;;;;;;;4988773;28;19917;-85
2023/01/22 07:40:23;;;;;;;;;;;;;;;;;;4989654;28;19919;-85
2023/01/22 07:42:51;;;;;;;;;;;;;;;;;;4989595;28;19914;-84
2023/01/22 07:45:18;;;;;;;;;;;;;;;;;;4959717;28;19915;-85
2023/01/22 07:47:44;;;;;;;;;;;;;;;;;;4971917;28;19921;-84
2023/01/22 07:50:10;;;;;;;;;;;;;;;;;;4975223;28;20365;-87
2023/01/22 07:52:35;;;;;;;;;;;;;;;;;;4981870;28;19922;-84
2023/01/22 07:55:01;;;;;;;;;;;;;;;;;;4976021;28;19962;-85
2023/01/22 07:57:27;;;;;;;;;;;;;;;;;;4975568;28;20344;-86
2023/01/22 07:59:53;;;;;;;;;;;;;;;;;;4971741;28;19919;-85
2023/01/22 08:02:22;;;;;;;;;;;;;;;;;;4996966;28;19914;-86
2023/01/22 08:04:48;;;;;;;;;;;;;;;;;;4992147;28;20020;-87
2023/01/22 08:07:14;;;;;;;;;;;;;;;;;;4989539;28;20384;-85
2023/01/22 08:09:40;;;;;;;;;;;;;;;;;;4973899;28;19914;-86
2023/01/22 08:12:06;;;;;;;;;;;;;;;;;;4991531;28;20337;-83
2023/01/22 08:14:32;;;;;;;;;;;;;;;;;;4978084;28;19918;-88
2023/01/22 08:16:57;;;;;;;;;;;;;;;;;;4974207;28;19914;-84
2023/01/22 08:19:23;;;;;;;;;;;;;;;;;;4994465;28;20373;-85
2023/01/22 08:21:49;;;;;;;;;;;;;;;;;;4997339;28;19909;-84
2023/01/22 08:24:18;;;;;;;;;;;;;;;;;;4996344;28;19910;-85
2023/01/22 08:26:44;;;;;;;;;;;;;;;;;;4995535;28;19921;-86
2023/01/22 08:29:10;;;;;;;;;;;;;;;;;;4999754;28;19918;-86
2023/01/22 08:31:38;;;;;;;;;;;;;;;;;;4999731;28;19969;-86
2023/01/22 08:34:04;;;;;;;;;;;;;;;;;;4996470;28;19910;-87
2023/01/22 08:36:30;;;;;;;;;;;;;;;;;;5001952;28;20037;-86
2023/01/22 08:38:56;;;;;;;;;;;;;;;;;;4991185;28;20340;-86
2023/01/22 08:41:22;;;;;;;;;;;;;;;;;;4981121;28;20060;-86
2023/01/22 08:43:48;;;;;;;;;;;;;;;;;;4998180;28;20569;-85
2023/01/22 08:46:14;;;;;;;;;;;;;;;;;;4999065;28;20357;-85
2023/01/22 08:48:42;;;;;;;;;;;;;;;;;;4997510;28;19949;-86
2023/01/22 08:51:08;;;;;;;;;;;;;;;;;;4978188;28;19918;-87
2023/01/22 08:53:34;;;;;;;;;;;;;;;;;;4997869;28;19920;-86
2023/01/22 08:56:00;;;;;;;;;;;;;;;;;;4999207;28;19910;-86
2023/01/22 08:58:26;;;;;;;;;;;;;;;;;;4988226;28;19916;-85
2023/01/22 09:00:55;;;;;;;;;;;;;;;;;;4983033;28;19921;-85
2023/01/22 09:03:21;;;;;;;;;;;;;;;;;;5011690;28;19953;-86
2023/01/22 09:05:47;;;;;;;;;;;;;;;;;;4994758;28;19925;-85
2023/01/22 09:08:12;;;;;;;;;;;;;;;;;;4993401;28;19968;-85
2023/01/22 09:10:38;;;;;;;;;;;;;;;;;;5000876;28;19981;-85
2023/01/22 09:13:04;;;;;;;;;;;;;;;;;;5001191;28;19964;-86
2023/01/22 09:15:30;;;;;;;;;;;;;;;;;;4981233;28;19953;-86
2023/01/22 09:17:59;;;;;;;;;;;;;;;;;;5000882;28;19918;-85
2023/01/22 09:20:24;;;;;;;;;;;;;;;;;;4991837;28;19969;-84
2023/01/22 09:22:50;;;;;;;;;;;;;;;;;;4986385;28;19918;-85
2023/01/22 09:25:16;;;;;;;;;;;;;;;;;;4986137;28;19902;-83
2023/01/22 09:27:42;;;;;;;;;;;;;;;;;;4989808;28;19938;-85
2023/01/22 09:30:08;;;;;;;;;;;;;;;;;;4977672;28;19918;-83
2023/01/22 09:32:34;;;;;;;;;;;;;;;;;;4973628;28;19914;-83
2023/01/22 09:35:00;;;;;;;;;;;;;;;;;;4985777;28;19917;-85
2023/01/22 09:37:28;;;;;;;;;;;;;;;;;;4996628;28;19918;-85
2023/01/22 09:39:54;;;;;;;;;;;;;;;;;;4969528;28;20202;-85
2023/01/22 09:42:20;;;;;;;;;;;;;;;;;;4985343;28;19968;-85
2023/01/22 09:44:49;;;;;;;;;;;;;;;;;;5001411;28;19920;-85
2023/01/22 09:47:14;;;;;;;;;;;;;;;;;;4995991;28;19918;-85
2023/01/22 09:49:40;;;;;;;;;;;;;;;;;;4974044;28;19925;-85
2023/01/22 09:52:06;;;;;;;;;;;;;;;;;;4995696;28;19918;-84
2023/01/22 09:54:32;;;;;;;;;;;;;;;;;;4989409;28;19991;-86
2023/01/22 09:56:58;;;;;;;;;;;;;;;;;;4969979;28;20010;-84
2023/01/22 09:59:24;;;;;;;;;;;;;;;;;;4961304;28;19919;-83
2023/01/22 10:01:50;;;;;;;;;;;;;;;;;;4979613;28;19911;-86
2023/01/22 10:04:16;;;;;;;;;;;;;;;;;;4996316;28;19910;-85
2023/01/22 10:06:44;;;;;;;;;;;;;;;;;;4997447;28;19914;-85
2023/01/22 10:09:12;;;;;;;;;;;;;;;;;;4970084;28;19946;-82
2023/01/22 10:11:38;;;;;;;;;;;;;;;;;;4979331;28;19915;-83
2023/01/22 10:14:04;;;;;;;;;;;;;;;;;;5010174;28;19998;-84
2023/01/22 10:16:32;;;;;;;;;;;;;;;;;;4979871;28;20301;-84
2023/01/22 10:18:58;;;;;;;;;;;;;;;;;;4977022;28;19922;-84
2023/01/22 10:21:27;;;;;;;;;;;;;;;;;;4991323;28;19921;-84
2023/01/22 10:23:54;;;;;;;;;;;;;;;;;;4974933;28;19919;-85
2023/01/22 10:26:24;;;;;;;;;;;;;;;;;;4979782;28;19914;-84
2023/01/22 10:28:50;;;;;;;;;;;;;;;;;;4976865;28;19910;-87
2023/01/22 10:31:15;;;;;;;;;;;;;;;;;;4990770;28;20915;-84
2023/01/22 10:33:44;;;;;;;;;;;;;;;;;;4978780;28;19918;-85
2023/01/22 10:36:12;;;;;;;;;;;;;;;;;;4977427;28;19910;-85
2023/01/22 10:38:38;;;;;;;;;;;;;;;;;;4978089;28;20005;-84
2023/01/22 10:41:04;;;;;;;;;;;;;;;;;;4974401;28;19969;-84
2023/01/22 10:43:30;;;;;;;;;;;;;;;;;;4974914;28;19921;-86
2023/01/22 10:46:03;;;;;;;;;;;;;;;;;;4976600;28;19969;-84
2023/01/22 10:48:29;;;;;;;;;;;;;;;;;;4995595;28;19914;-84
2023/01/22 10:50:55;;;;;;;;;;;;;;;;;;4991219;28;20017;-84
2023/01/22 10:53:21;;;;;;;;;;;;;;;;;;4975198;28;19981;-84
2023/01/22 10:55:49;;;;;;;;;;;;;;;;;;4975249;28;19914;-84
2023/01/22 10:58:15;;;;;;;;;;;;;;;;;;4975550;28;20375;-84
2023/01/22 11:00:41;;;;;;;;;;;;;;;;;;4993137;28;19968;-85
2023/01/22 11:03:07;;;;;;;;;;;;;;;;;;4977373;28;19961;-85
2023/01/22 11:05:43;;;;;;;;;;;;;;;;;;;;;
2023/01/22 11:08:09;;;;;;;;;;;;;;;;;;4975777;28;19914;-85
2023/01/22 11:10:35;;;;;;;;;;;;;;;;;;4965400;28;19973;-84
2023/01/22 11:13:01;;;;;;;;;;;;;;;;;;4977270;28;19985;-84
2023/01/22 11:15:27;;;;;;;;;;;;;;;;;;4979688;28;19914;-83
2023/01/22 11:17:52;;;;;;;;;;;;;;;;;;4986865;28;19918;-84
2023/01/22 11:20:18;;;;;;;;;;;;;;;;;;4987152;28;19929;-82
2023/01/22 11:22:44;;;;;;;;;;;;;;;;;;4982078;28;19914;-83
2023/01/22 11:25:10;;;;;;;;;;;;;;;;;;4992882;28;19948;-82
2023/01/22 11:27:36;;;;;;;;;;;;;;;;;;4993370;28;19917;-83
2023/01/22 11:30:02;;;;;;;;;;;;;;;;;;4993975;28;19914;-82
2023/01/22 11:32:28;;;;;;;;;;;;;;;;;;4990840;28;19914;-83
2023/01/22 11:34:54;;;;;;;;;;;;;;;;;;4993714;28;19922;-84
2023/01/22 11:37:20;;;;;;;;;;;;;;;;;;4979942;28;19937;-81
2023/01/22 11:39:46;;;;;;;;;;;;;;;;;;4999638;28;19922;-81
2023/01/22 11:42:12;;;;;;;;;;;;;;;;;;4986296;28;19968;-82
2023/01/22 11:44:38;;;;;;;;;;;;;;;;;;4997944;28;19914;-80
2023/01/22 11:47:04;;;;;;;;;;;;;;;;;;4998805;28;19952;-81
2023/01/22 11:49:30;;;;;;;;;;;;;;;;;;4996576;28;19914;-81
2023/01/22 11:51:58;;;;;;;;;;;;;;;;;;4997115;28;19921;-81
2023/01/22 11:54:25;;;;;;;;;;;;;;;;;;4996892;28;20483;-81
2023/01/22 11:56:51;;;;;;;;;;;;;;;;;;4996324;28;19914;-83
2023/01/22 11:59:17;;;;;;;;;;;;;;;;;;4998146;28;19924;-83
2023/01/22 12:01:43;;;;;;;;;;;;;;;;;;4991393;28;20424;-80
2023/01/22 12:04:09;;;;;;;;;;;;;;;;;;4989044;28;19914;-84
2023/01/22 12:06:35;;;;;;;;;;;;;;;;;;4993635;28;19914;-83
2023/01/22 12:09:00;;;;;;;;;;;;;;;;;;4978613;28;19914;-82
2023/01/22 12:11:26;;;;;;;;;;;;;;;;;;4978356;28;19917;-80
2023/01/22 12:13:52;;;;;;;;;;;;;;;;;;5004339;28;19914;-81
2023/01/22 12:16:18;;;;;;;;;;;;;;;;;;4995752;28;20408;-83
2023/01/22 12:18:44;;;;;;;;;;;;;;;;;;4997690;28;19922;-83
2023/01/22 12:21:10;;;;;;;;;;;;;;;;;;4998785;28;19914;-83
2023/01/22 12:23:36;;;;;;;;;;;;;;;;;;4999419;28;20716;-84
2023/01/22 12:26:02;;;;;;;;;;;;;;;;;;5000302;28;19921;-83
2023/01/22 12:28:28;;;;;;;;;;;;;;;;;;4993758;28;19982;-84
2023/01/22 12:30:53;;;;;;;;;;;;;;;;;;4990452;28;19914;-82
2023/01/22 12:33:19;;;;;;;;;;;;;;;;;;4994051;28;19941;-85
2023/01/22 12:35:45;;;;;;;;;;;;;;;;;;4994891;28;19914;-82
2023/01/22 12:38:14;;;;;;;;;;;;;;;;;;4996608;28;20021;-83
2023/01/22 12:40:40;;;;;;;;;;;;;;;;;;4998154;28;19953;-86
2023/01/22 12:43:05;;;;;;;;;;;;;;;;;;5000178;28;19921;-84
2023/01/22 12:45:31;;;;;;;;;;;;;;;;;;4997267;28;19949;-83
2023/01/22 12:48:00;;;;;;;;;;;;;;;;;;4999125;28;19914;-85
2023/01/22 12:50:26;;;;;;;;;;;;;;;;;;4994765;28;19914;-84
2023/01/22 12:52:52;;;;;;;;;;;;;;;;;;4997905;28;20484;-83
2023/01/22 12:55:20;;;;;;;;;;;;;;;;;;4998996;28;19910;-85
2023/01/22 12:57:46;;;;;;;;;;;;;;;;;;4983925;28;19949;-83
2023/01/22 13:00:12;;;;;;;;;;;;;;;;;;4997977;28;20142;-85
2023/01/22 13:02:38;;;;;;;;;;;;;;;;;;4996340;28;19981;-82
2023/01/22 13:05:04;;;;;;;;;;;;;;;;;;5006534;28;19948;-86
2023/01/22 13:07:30;;;;;;;;;;;;;;;;;;5013563;28;20291;-87
2023/01/22 13:09:56;;;;;;;;;;;;;;;;;;5012984;28;19921;-87
2023/01/22 13:12:22;;;;;;;;;;;;;;;;;;5009855;28;19913;-84
2023/01/22 13:14:48;;;;;;;;;;;;;;;;;;5007766;28;19925;-85
2023/01/22 13:17:16;;;;;;;;;;;;;;;;;;4994133;28;19914;-86
2023/01/22 13:19:43;;;;;;;;;;;;;;;;;;4999394;28;19922;-84
2023/01/22 13:22:09;;;;;;;;;;;;;;;;;;4979651;28;19914;-82
2023/01/22 13:24:35;;;;;;;;;;;;;;;;;;4975205;28;19948;-83
2023/01/22 13:27:02;;;;;;;;;;;;;;;;;;4999341;28;19910;-84
2023/01/22 13:29:30;;;;;;;;;;;;;;;;;;4978289;28;19957;-85
2023/01/22 13:31:56;;;;;;;;;;;;;;;;;;4994130;28;19914;-84
2023/01/22 13:34:22;;;;;;;;;;;;;;;;;;5000400;28;19917;-86
2023/01/22 13:36:48;;;;;;;;;;;;;;;;;;4986290;28;19925;-84
2023/01/22 13:39:14;;;;;;;;;;;;;;;;;;4983995;28;19937;-86
2023/01/22 13:41:40;;;;;;;;;;;;;;;;;;5005235;28;19914;-85
2023/01/22 13:44:06;;;;;;;;;;;;;;;;;;5011240;28;19917;-86
2023/01/22 13:46:34;;;;;;;;;;;;;;;;;;5006174;28;19902;-86
2023/01/22 13:49:07;;;;;;;;;;;;;;;;;;5007552;28;19910;-86
2023/01/22 13:51:33;;;;;;;;;;;;;;;;;;4980871;28;19919;-85
2023/01/22 13:54:02;;;;;;;;;;;;;;;;;;4986884;28;19938;-87
2023/01/22 13:56:28;;;;;;;;;;;;;;;;;;4980854;28;19913;-86
2023/01/22 13:58:54;;;;;;;;;;;;;;;;;;5005614;28;20008;-86
2023/01/22 14:01:22;;;;;;;;;;;;;;;;;;5001270;28;19921;-87
2023/01/22 14:03:48;;;;;;;;;;;;;;;;;;4997327;28;19910;-87
2023/01/22 14:06:14;;;;;;;;;;;;;;;;;;4980420;28;20064;-87
2023/01/22 14:08:40;;;;;;;;;;;;;;;;;;4993556;28;19913;-87
2023/01/22 14:11:05;;;;;;;;;;;;;;;;;;4978902;28;19913;-85
2023/01/22 14:13:31;;;;;;;;;;;;;;;;;;4995891;28;19936;-85
2023/01/22 14:15:58;;;;;;;;;;;;;;;;;;4996613;28;19910;-85
2023/01/22 14:18:24;;;;;;;;;;;;;;;;;;4974952;28;19925;-84
2023/01/22 14:20:50;;;;;;;;;;;;;;;;;;4999307;28;19941;-84
2023/01/22 14:23:17;;;;;;;;;;;;;;;;;;4981789;28;19918;-84
2023/01/22 14:25:43;;;;;;;;;;;;;;;;;;4958504;28;19910;-85
2023/01/22 14:28:08;;;;;;;;;;;;;;;;;;4976165;28;19924;-85
2023/01/22 14:30:34;;;;;;;;;;;;;;;;;;4991579;28;19914;-84
2023/01/22 14:33:00;;;;;;;;;;;;;;;;;;4994427;28;19917;-85
2023/01/22 14:35:26;;;;;;;;;;;;;;;;;;4993460;28;20364;-84
2023/01/22 14:37:52;;;;;;;;;;;;;;;;;;4993041;28;19917;-84
2023/01/22 14:40:18;;;;;;;;;;;;;;;;;;4977406;28;19925;-84
2023/01/22 14:42:46;;;;;;;;;;;;;;;;;;4993704;28;19964;-85
2023/01/22 14:45:15;;;;;;;;;;;;;;;;;;4994120;28;19910;-85
2023/01/22 14:47:40;;;;;;;;;;;;;;;;;;4989933;28;19922;-84
2023/01/22 14:50:06;;;;;;;;;;;;;;;;;;4975384;28;19911;-85
2023/01/22 14:52:32;;;;;;;;;;;;;;;;;;4976094;28;19911;-85
2023/01/22 14:54:58;;;;;;;;;;;;;;;;;;4976650;28;19933;-85
2023/01/22 14:57:27;;;;;;;;;;;;;;;;;;4994114;28;19917;-86
2023/01/22 14:59:53;;;;;;;;;;;;;;;;;;4994374;28;20364;-86
2023/01/22 15:02:19;;;;;;;;;;;;;;;;;;4994699;28;19917;-86
2023/01/22 15:04:44;;;;;;;;;;;;;;;;;;4995691;28;19968;-85
2023/01/22 15:07:11;;;;;;;;;;;;;;;;;;4992114;28;19910;-86
2023/01/22 15:09:37;;;;;;;;;;;;;;;;;;4980439;28;20293;-86
2023/01/22 15:12:02;;;;;;;;;;;;;;;;;;4995994;28;19914;-86
2023/01/22 15:14:28;;;;;;;;;;;;;;;;;;4994839;28;19910;-86
2023/01/22 15:16:54;;;;;;;;;;;;;;;;;;4994495;28;19961;-86
2023/01/22 15:19:23;;;;;;;;;;;;;;;;;;4994099;28;20293;-86
2023/01/22 15:21:49;;;;;;;;;;;;;;;;;;4981177;28;19910;-85
2023/01/22 15:24:15;;;;;;;;;;;;;;;;;;4982603;28;19986;-86
2023/01/22 15:26:40;;;;;;;;;;;;;;;;;;4998139;28;19994;-84
2023/01/22 15:29:06;;;;;;;;;;;;;;;;;;5008185;28;19977;-87
2023/01/22 15:31:32;;;;;;;;;;;;;;;;;;4983205;28;19914;-85
2023/01/22 15:34:00;;;;;;;;;;;;;;;;;;4996869;28;19948;-85
2023/01/22 15:36:26;;;;;;;;;;;;;;;;;;4997672;28;19981;-87
2023/01/22 15:38:52;;;;;;;;;;;;;;;;;;4997722;28;19917;-86
2023/01/22 15:41:18;;;;;;;;;;;;;;;;;;4979180;28;19914;-85
2023/01/22 15:43:49;;;;;;;;;;;;;;;;;;4996186;28;19956;-86
2023/01/22 15:46:15;;;;;;;;;;;;;;;;;;4994742;28;19937;-88
2023/01/22 15:48:41;;;;;;;;;;;;;;;;;;4998336;28;19918;-89
2023/01/22 15:51:07;;;;;;;;;;;;;;;;;;5004883;28;19913;-87
2023/01/22 15:53:33;;;;;;;;;;;;;;;;;;4996066;28;20283;-88
2023/01/22 15:56:01;;;;;;;;;;;;;;;;;;4997557;28;20447;-88
2023/01/22 15:58:27;;;;;;;;;;;;;;;;;;4998095;28;19910;-89
2023/01/22 16:00:53;;;;;;;;;;;;;;;;;;4998622;28;19910;-88
2023/01/22 16:03:19;;;;;;;;;;;;;;;;;;4998501;28;20385;-88
2023/01/22 16:05:45;;;;;;;;;;;;;;;;;;4997016;28;19910;-88
2023/01/22 16:08:10;;;;;;;;;;;;;;;;;;5002553;28;19909;-89
2023/01/22 16:10:36;;;;;;;;;;;;;;;;;;5005853;28;19909;-89
2023/01/22 16:13:02;;;;;;;;;;;;;;;;;;4977687;28;20040;-88
2023/01/22 16:15:28;;;;;;;;;;;;;;;;;;5001875;28;19910;-87
2023/01/22 16:17:54;;;;;;;;;;;;;;;;;;4995729;28;19925;-89
2023/01/22 16:20:22;;;;;;;;;;;;;;;;;;4995629;28;19922;-88
2023/01/22 16:22:49;;;;;;;;;;;;;;;;;;4981987;28;19914;-87
2023/01/22 16:25:15;;;;;;;;;;;;;;;;;;4993233;28;19969;-89
2023/01/22 16:27:41;;;;;;;;;;;;;;;;;;4997835;28;20331;-87
2023/01/22 16:30:07;;;;;;;;;;;;;;;;;;4993129;28;19924;-89
2023/01/22 16:32:33;;;;;;;;;;;;;;;;;;4994108;28;19914;-86
2023/01/22 16:34:59;;;;;;;;;;;;;;;;;;4995838;28;19933;-86
2023/01/22 16:37:25;;;;;;;;;;;;;;;;;;4996896;28;20296;-85
2023/01/22 16:39:52;;;;;;;;;;;;;;;;;;4996417;28;19918;-86
2023/01/22 16:42:20;;;;;;;;;;;;;;;;;;4976996;28;19914;-87
2023/01/22 16:44:47;;;;;;;;;;;;;;;;;;4986931;28;19992;-87
2023/01/22 16:47:13;;;;;;;;;;;;;;;;;;4979267;28;19920;-86